Time;durP1;ratioP1;P1;durP2;ratioP2;P2;SDS_P1;SDS_P2;PMS_P1;PMS_P2;Temp;Humidity;BMP_temperature;BMP_pressure;BME280_temperature;BME280_humidity;BME280_pressure;Samples;Min_cycle;Max_cycle;Signal;HPM_P1;HPM_P2
2022/04/28 00:01:07;;;;;;;4.7;3;;;;;;;6.69;83.45508;944.2659;;;;
2022/04/28 00:03:32;;;;;;;4;3;;;;;;;6.66;83.69922;944.3013;;;;
2022/04/28 00:06:01;;;;;;;5.2;3.3;;;;;;;6.51;84.26855;944.3214;;;;
2022/04/28 00:08:26;;;;;;;3.8;3.1;;;;;;;6.57;84.12305;944.3234;;;;
2022/04/28 00:10:51;;;;;;;3.6;3;;;;;;;6.45;84.40527;944.3131;;;;
2022/04/28 00:13:17;;;;;;;6.4;4;;;;;;;6.33;85.11719;944.3474;;;;
2022/04/28 00:15:44;;;;;;;22.5;12.2;;;;;;;6.18;86.1377;944.2745;;;;
2022/04/28 00:18:09;;;;;;;12.5;7.1;;;;;;;6.25;85.95996;944.2237;;;;
2022/04/28 00:20:36;;;;;;;4.1;3.2;;;;;;;6.24;85.91309;944.2952;;;;
2022/04/28 00:23:01;;;;;;;23.7;13.3;;;;;;;6.28;85.81836;944.2522;;;;
2022/04/28 00:25:28;;;;;;;3.4;3.1;;;;;;;6.16;85.89648;944.2477;;;;
2022/04/28 00:27:54;;;;;;;20.5;13.1;;;;;;;6.22;85.875;944.2953;;;;
2022/04/28 00:30:18;;;;;;;10.1;6.7;;;;;;;6.34;85.04883;944.217;;;;
2022/04/28 00:32:46;;;;;;;3.8;3.4;;;;;;;6.27;85.24902;944.2841;;;;
2022/04/28 00:35:12;;;;;;;3.6;3.3;;;;;;;6.27;85.37598;944.2598;;;;
2022/04/28 00:37:41;;;;;;;3.3;3;;;;;;;6.36;84.6582;944.233;;;;
2022/04/28 00:40:13;;;;;;;4.2;3.2;;;;;;;6.37;84.30078;944.2476;;;;
2022/04/28 00:42:39;;;;;;;5.5;3.2;;;;;;;6.28;84.69922;944.2128;;;;
2022/04/28 00:45:15;;;;;;;12;6.7;;;;;;;6.08;85.53027;944.252;;;;
2022/04/28 00:52:43;;;;;;;3.9;3;;;;;;;6.2;85.1123;944.2444;;;;
2022/04/28 00:55:14;;;;;;;3.9;3.4;;;;;;;6.24;84.67871;944.2064;;;;
2022/04/28 00:57:41;;;;;;;5.7;3.3;;;;;;;6.14;85.17871;944.1196;;;;
2022/04/28 01:00:21;;;;;;;21;14.8;;;;;;;6.09;85.37305;944.1749;;;;
2022/04/28 01:02:46;;;;;;;4;3.6;;;;;;;6.09;85.66895;944.1378;;;;
2022/04/28 01:05:19;;;;;;;3.9;3.2;;;;;;;6.24;85.32324;944.1378;;;;
2022/04/28 01:07:44;;;;;;;3.5;3.1;;;;;;;6.17;85.18652;944.165;;;;
2022/04/28 01:10:17;;;;;;;4.3;3.1;;;;;;;6.1;85.375;944.1627;;;;
2022/04/28 01:12:46;;;;;;;3.8;3.2;;;;;;;6.05;85.85059;944.1362;;;;
2022/04/28 01:15:11;;;;;;;3.4;3;;;;;;;5.94;86.25977;944.133;;;;
2022/04/28 01:17:42;;;;;;;4.4;3.3;;;;;;;6.02;85.49512;944.1453;;;;
2022/04/28 01:20:15;;;;;;;4.9;3.6;;;;;;;5.97;85.33691;944.1653;;;;
2022/04/28 01:22:43;;;;;;;3.8;3.2;;;;;;;5.83;86.36035;944.1562;;;;
2022/04/28 01:25:08;;;;;;;3.4;3.1;;;;;;;5.84;86.14746;944.0561;;;;
2022/04/28 01:27:33;;;;;;;3.5;3.1;;;;;;;5.83;85.86328;944.0818;;;;
2022/04/28 01:30:00;;;;;;;3.7;3.3;;;;;;;5.58;86.7041;944.1566;;;;
2022/04/28 01:32:25;;;;;;;4.5;3.4;;;;;;;5.54;87.0127;944.0705;;;;
2022/04/28 01:34:55;;;;;;;4.1;3.2;;;;;;;5.53;87.10156;944.1122;;;;
2022/04/28 01:37:20;;;;;;;3.5;3.1;;;;;;;5.6;86.60645;944.0964;;;;
2022/04/28 01:39:48;;;;;;;3.2;2.9;;;;;;;5.63;86.59082;944.0694;;;;
2022/04/28 01:42:13;;;;;;;4;3.2;;;;;;;5.58;86.45605;944.0941;;;;
2022/04/28 01:44:38;;;;;;;3.9;2.9;;;;;;;5.52;86.65918;944.1172;;;;
2022/04/28 01:56:01;;;;;;;4.1;3.5;;;;;;;5.39;87.63574;944.0914;;;;
2022/04/28 01:58:30;;;;;;;3.4;3.1;;;;;;;5.46;86.95117;944.1283;;;;
2022/04/28 02:00:55;;;;;;;4;3.2;;;;;;;5.51;86.04785;944.0988;;;;
2022/04/28 02:07:13;;;;;;;4.1;3.1;;;;;;;5.29;86.81445;944.1981;;;;
2022/04/28 02:09:36;;;;;;;5.1;3.6;;;;;;;5.22;87.00488;944.2122;;;;
2022/04/28 02:12:01;;;;;;;3.8;3.3;;;;;;;5.16;87.62305;944.1236;;;;
2022/04/28 02:14:30;;;;;;;5.3;3.8;;;;;;;5.16;87.60059;944.1155;;;;
2022/04/28 02:17:01;;;;;;;3.4;3;;;;;;;5.25;87.20215;944.072;;;;
2022/04/28 02:19:29;;;;;;;5.3;3.2;;;;;;;5.32;86.49512;944.1703;;;;
2022/04/28 02:21:54;;;;;;;3.9;3.1;;;;;;;5.4;85.84375;944.1961;;;;
2022/04/28 02:24:25;;;;;;;3.6;3.1;;;;;;;5.44;85.75195;944.202;;;;
2022/04/28 02:26:54;;;;;;;4.2;3.3;;;;;;;5.4;85.69922;944.2104;;;;
2022/04/28 02:29:19;;;;;;;3.9;3.5;;;;;;;5.19;86.18555;944.2603;;;;
2022/04/28 02:31:45;;;;;;;5.8;3.6;;;;;;;5.03;86.97754;944.217;;;;
2022/04/28 02:34:16;;;;;;;4.3;3.4;;;;;;;4.91;87.83105;944.2109;;;;
2022/04/28 02:36:42;;;;;;;3.7;2.9;;;;;;;4.87;88.11621;944.1503;;;;
2022/04/28 02:39:10;;;;;;;3.7;3;;;;;;;4.77;88.12988;944.1801;;;;
2022/04/28 02:41:41;;;;;;;4.5;2.9;;;;;;;4.78;88.41113;944.2236;;;;
2022/04/28 02:44:11;;;;;;;4.4;3.3;;;;;;;4.72;88.53711;944.2079;;;;
2022/04/28 02:46:36;;;;;;;4.1;3.2;;;;;;;4.65;89.02734;944.2255;;;;
2022/04/28 02:49:05;;;;;;;3.2;2.9;;;;;;;4.63;89.16797;944.2545;;;;
2022/04/28 02:52:15;;;;;;;4.4;3.4;;;;;;;4.59;90.07422;944.252;;;;
2022/04/28 02:54:42;;;;;;;3.6;3.3;;;;;;;4.56;89.75098;944.2389;;;;
2022/04/28 02:57:07;;;;;;;5.3;3.4;;;;;;;4.54;90.05176;944.197;;;;
2022/04/28 02:59:35;;;;;;;4.5;3.4;;;;;;;4.51;90.28027;944.2202;;;;
2022/04/28 03:02:00;;;;;;;4.3;3.7;;;;;;;4.56;90.05762;944.142;;;;
2022/04/28 03:04:28;;;;;;;5.1;3.6;;;;;;;4.62;89.84375;944.18;;;;
2022/04/28 03:11:50;;;;;;;5.3;3.3;;;;;;;4.61;88.80566;944.2249;;;;
2022/04/28 03:14:19;;;;;;;4.7;3;;;;;;;4.54;88.54492;944.2083;;;;
2022/04/28 03:16:44;;;;;;;4.2;3.4;;;;;;;4.35;89.08887;944.2551;;;;
2022/04/28 03:19:15;;;;;;;4.6;3.4;;;;;;;4.29;89.4707;944.2463;;;;
2022/04/28 03:21:42;;;;;;;4.6;3.5;;;;;;;4.17;90.33301;944.2966;;;;
2022/04/28 03:24:06;;;;;;;4.5;3.5;;;;;;;4.21;90.27344;944.305;;;;
2022/04/28 03:26:33;;;;;;;3.6;3.3;;;;;;;4.31;89.67773;944.2938;;;;
2022/04/28 03:28:57;;;;;;;5.1;3.7;;;;;;;4.37;89.2627;944.2506;;;;
2022/04/28 03:31:24;;;;;;;5.4;3.5;;;;;;;4.46;89.02148;944.3111;;;;
2022/04/28 03:34:30;;;;;;;4.8;3.9;;;;;;;4.46;88.67383;944.3153;;;;
2022/04/28 03:36:58;;;;;;;4.3;3.3;;;;;;;4.36;88.60645;944.2759;;;;
2022/04/28 03:39:23;;;;;;;4.4;3.1;;;;;;;4.21;89.14844;944.3223;;;;
2022/04/28 03:41:48;;;;;;;4;3.4;;;;;;;4.21;89.16016;944.3586;;;;
2022/04/28 03:44:17;;;;;;;4.1;3.1;;;;;;;4.21;89.375;944.2516;;;;
2022/04/28 03:46:42;;;;;;;5.3;3.6;;;;;;;4.24;89.17871;944.322;;;;
2022/04/28 03:49:11;;;;;;;4.5;3.5;;;;;;;4.19;89.28125;944.3113;;;;
2022/04/28 03:51:41;;;;;;;3.9;3.3;;;;;;;4.09;89.58691;944.3644;;;;
2022/04/28 03:54:06;;;;;;;6.8;3.4;;;;;;;4;89.84863;944.3798;;;;
2022/04/28 03:56:32;;;;;;;7.8;3.9;;;;;;;3.96;90.24414;944.3719;;;;
2022/04/28 03:59:19;;;;;;;4.8;3.8;;;;;;;3.95;90.08691;944.5038;;;;
2022/04/28 04:02:40;;;;;;;4.2;3.8;;;;;;;3.76;91;944.4774;;;;
2022/04/28 04:05:14;;;;;;;4.4;4;;;;;;;3.71;91.75293;944.5385;;;;
2022/04/28 04:07:45;;;;;;;4.3;3.4;;;;;;;3.8;90.88574;944.5168;;;;
2022/04/28 04:10:16;;;;;;;5.7;3.4;;;;;;;3.78;91.375;944.4944;;;;
2022/04/28 04:12:48;;;;;;;5.1;3.6;;;;;;;3.76;91.08984;944.5497;;;;
2022/04/28 04:15:19;;;;;;;5.8;3.9;;;;;;;3.72;91.82422;944.5089;;;;
2022/04/28 04:17:47;;;;;;;4;3.6;;;;;;;3.87;91.39453;944.5797;;;;
2022/04/28 04:20:14;;;;;;;4.9;3.7;;;;;;;3.95;90.63574;944.6006;;;;
2022/04/28 04:22:45;;;;;;;5.6;3.5;;;;;;;4.05;90.08203;944.6264;;;;
2022/04/28 04:25:20;;;;;;;6;4.3;;;;;;;4.03;89.83203;944.6531;;;;
2022/04/28 04:27:51;;;;;;;7.4;4.7;;;;;;;4.08;89.65039;944.6671;;;;
2022/04/28 04:32:48;;;;;;;6.1;4.1;;;;;;;3.99;90.00293;944.7355;;;;
2022/04/28 04:35:21;;;;;;;4.6;3.9;;;;;;;4.12;89.74805;944.6531;;;;
2022/04/28 04:37:50;;;;;;;4.9;3.5;;;;;;;4.15;89.60938;944.7594;;;;
2022/04/28 04:40:22;;;;;;;5.3;3.6;;;;;;;4.13;88.76172;944.7932;;;;
2022/04/28 04:42:51;;;;;;;4.5;3.8;;;;;;;4.1;89.44238;944.781;;;;
2022/04/28 04:45:16;;;;;;;4.6;4;;;;;;;4.16;91.28906;944.6747;;;;
2022/04/28 04:47:48;;;;;;;4.7;3.8;;;;;;;4.2;90.47559;944.8136;;;;
2022/04/28 04:50:19;;;;;;;5;4;;;;;;;4.16;90.60352;944.7961;;;;
2022/04/28 04:52:50;;;;;;;6.8;4.1;;;;;;;4.14;90.87891;944.8636;;;;
2022/04/28 04:55:19;;;;;;;8;4.4;;;;;;;4.33;90.22168;944.8275;;;;
2022/04/28 04:57:44;;;;;;;6.1;4.3;;;;;;;4.36;89.62109;944.8336;;;;
2022/04/28 05:00:19;;;;;;;5.4;3.8;;;;;;;4.26;89.31738;944.8022;;;;
2022/04/28 05:02:51;;;;;;;7.6;4.4;;;;;;;4.41;88.98926;944.8872;;;;
2022/04/28 05:05:24;;;;;;;7.6;4.1;;;;;;;4.46;88.3457;944.945;;;;
2022/04/28 05:07:57;;;;;;;6.7;4;;;;;;;4.42;87.77539;944.9437;;;;
2022/04/28 05:10:22;;;;;;;4.4;4;;;;;;;4.51;87.55566;944.9692;;;;
2022/04/28 05:12:51;;;;;;;7.7;4;;;;;;;4.33;88.35156;944.9983;;;;
2022/04/28 05:15:22;;;;;;;7.7;5.3;;;;;;;4.24;89.09961;944.9985;;;;
2022/04/28 05:17:51;;;;;;;5.3;4.3;;;;;;;4.32;89.89355;945.0289;;;;
2022/04/28 05:20:22;;;;;;;5.9;4.6;;;;;;;4.55;89.72656;945.017;;;;
2022/04/28 05:22:54;;;;;;;6;4;;;;;;;4.79;88.3584;945.0913;;;;
2022/04/28 05:25:24;;;;;;;8.9;4.6;;;;;;;5.04;87.04688;945.0281;;;;
2022/04/28 05:27:52;;;;;;;7;4.8;;;;;;;5.53;88.2168;945.1633;;;;
2022/04/28 05:30:17;;;;;;;6.9;3.2;;;;;;;7.16;82.14355;945.127;;;;
2022/04/28 05:32:45;;;;;;;5.8;3.6;;;;;;;9.08;73.99902;945.1417;;;;
2022/04/28 05:35:12;;;;;;;7.4;3.9;;;;;;;9.66;69.16406;945.1291;;;;
2022/04/28 05:37:41;;;;;;;7.3;3.2;;;;;;;10.84;65.00098;945.1646;;;;
2022/04/28 05:40:18;;;;;;;6.3;3.2;;;;;;;11.46;62.7373;945.188;;;;
2022/04/28 05:47:50;;;;;;;4.2;2.7;;;;;;;13.15;55.22656;945.1275;;;;
2022/04/28 05:50:24;;;;;;;2.8;2.5;;;;;;;14.64;52.36133;945.1828;;;;
2022/04/28 05:52:56;;;;;;;4.6;2.9;;;;;;;15.92;50.1582;945.2025;;;;
2022/04/28 05:55:28;;;;;;;3.3;2.4;;;;;;;16.58;46.49414;945.1406;;;;
2022/04/28 05:57:53;;;;;;;4.3;2.7;;;;;;;15.98;47.27441;945.1326;;;;
2022/04/28 06:00:24;;;;;;;6.7;2.8;;;;;;;14.13;52.42871;945.2267;;;;
2022/04/28 06:02:55;;;;;;;4;2.9;;;;;;;16.09;49.13574;945.2051;;;;
2022/04/28 06:05:26;;;;;;;3.9;2.8;;;;;;;16.84;45.07422;945.1736;;;;
2022/04/28 06:07:56;;;;;;;4.3;2.8;;;;;;;16.06;47.71094;945.1883;;;;
2022/04/28 06:10:21;;;;;;;4.5;3;;;;;;;15.19;49.38184;945.1711;;;;
2022/04/28 06:12:50;;;;;;;4.9;2.8;;;;;;;14.85;50.39355;945.1191;;;;
2022/04/28 06:15:20;;;;;;;3.8;2.9;;;;;;;15.78;48.03809;945.1844;;;;
2022/04/28 06:17:50;;;;;;;3.2;2.9;;;;;;;15.15;48.89258;945.195;;;;
2022/04/28 06:20:22;;;;;;;3.6;3.1;;;;;;;16.06;47.12109;945.2292;;;;
2022/04/28 06:22:52;;;;;;;5.4;3;;;;;;;16.66;46.44531;945.1945;;;;
2022/04/28 06:25:17;;;;;;;6.5;3.7;;;;;;;18.56;42.36621;945.2145;;;;
2022/04/28 06:27:46;;;;;;;5.4;3.4;;;;;;;19.32;42.15918;945.1862;;;;
2022/04/28 06:30:21;;;;;;;9.3;3.7;;;;;;;18.16;42.32813;945.2015;;;;
2022/04/28 06:32:55;;;;;;;3.6;3;;;;;;;17.95;42.21387;945.1981;;;;
2022/04/28 06:35:25;;;;;;;3;2.7;;;;;;;19.82;39.66504;945.1824;;;;
2022/04/28 06:37:56;;;;;;;6.6;3.2;;;;;;;18.13;41.7666;945.2808;;;;
2022/04/28 06:40:27;;;;;;;3.1;2.8;;;;;;;16.59;44.27246;945.2314;;;;
2022/04/28 06:43:38;;;;;;;3.6;2.9;;;;;;;18.87;40.70801;945.229;;;;
2022/04/28 06:46:16;;;;;;;3.9;3;;;;;;;22.01;35.94629;945.1292;;;;
2022/04/28 06:48:32;;;;;;;2.6;2.4;;;;;;;23.35;33.9502;945.163;;;;
2022/04/28 06:50:57;;;;;;;3.6;2.7;;;;;;;18.48;40.20703;945.2572;;;;
2022/04/28 06:53:28;;;;;;;2.4;2.2;;;;;;;19.33;39.43359;945.2167;;;;
2022/04/28 06:55:57;;;;;;;3;2.7;;;;;;;21.58;37.45801;945.1116;;;;
2022/04/28 06:58:25;;;;;;;3.1;2.8;;;;;;;23.02;33.76172;945.0881;;;;
2022/04/28 07:00:52;;;;;;;2.8;2.5;;;;;;;24.13;31.76172;945.0983;;;;
2022/04/28 07:03:20;;;;;;;2.5;2.3;;;;;;;24.82;30.50098;945.0641;;;;
2022/04/28 07:05:46;;;;;;;3.9;2.8;;;;;;;25.68;29.57813;945.0399;;;;
2022/04/28 07:08:12;;;;;;;4;2.8;;;;;;;20.46;35.02734;945.09;;;;
2022/04/28 07:10:45;;;;;;;3;2.7;;;;;;;17.85;40.66016;945.1369;;;;
2022/04/28 07:13:10;;;;;;;3.4;2.6;;;;;;;22.08;35.96387;945.1143;;;;
2022/04/28 07:15:45;;;;;;;4.1;3.1;;;;;;;22.77;33.84766;945.1105;;;;
2022/04/28 07:18:11;;;;;;;3.7;2.8;;;;;;;21.47;36.91016;945.1066;;;;
2022/04/28 07:20:35;;;;;;;3.5;2.8;;;;;;;22.54;35.23926;945.1122;;;;
2022/04/28 07:23:03;;;;;;;3.7;2.8;;;;;;;23.79;32.83105;945.12;;;;
2022/04/28 07:25:28;;;;;;;3;2.7;;;;;;;24.27;31.91211;945.0901;;;;
2022/04/28 07:27:54;;;;;;;2.9;2.6;;;;;;;24.69;31.15234;945.124;;;;
2022/04/28 07:30:20;;;;;;;3.1;2.8;;;;;;;25.87;29.89844;945.1208;;;;
2022/04/28 07:32:45;;;;;;;2.7;2.5;;;;;;;25.22;31.27246;945.0882;;;;
2022/04/28 07:35:17;;;;;;;4.1;3;;;;;;;24.77;32.00684;945.0955;;;;
2022/04/28 07:37:49;;;;;;;3;2.7;;;;;;;25.96;31.2168;945.1436;;;;
2022/04/28 07:40:15;;;;;;;3.4;2.5;;;;;;;26.21;29.40039;945.0912;;;;
2022/04/28 07:45:27;;;;;;;4;3;;;;;;;25.38;31.01172;945.1595;;;;
2022/04/28 07:47:57;;;;;;;3;2.6;;;;;;;25.85;29.22266;945.1339;;;;
2022/04/28 07:50:28;;;;;;;3.2;2.9;;;;;;;25.5;30.24023;945.1772;;;;
2022/04/28 07:52:58;;;;;;;3.5;2.7;;;;;;;25.72;30.8457;945.2411;;;;
2022/04/28 07:55:29;;;;;;;3;2.7;;;;;;;25.24;30.90723;945.1775;;;;
2022/04/28 07:57:55;;;;;;;3;2.6;;;;;;;25.78;29.83301;945.2449;;;;
2022/04/28 08:00:24;;;;;;;3.2;2.3;;;;;;;25.2;31.43555;945.2563;;;;
2022/04/28 08:02:49;;;;;;;2.8;2.6;;;;;;;25.86;30.33594;945.2581;;;;
2022/04/28 08:05:16;;;;;;;2.7;2.5;;;;;;;26.1;29.77246;945.2665;;;;
2022/04/28 08:07:46;;;;;;;2.3;2.1;;;;;;;25.39;30.6582;945.283;;;;
2022/04/28 08:10:21;;;;;;;2.3;2.1;;;;;;;25.61;30.12988;945.2483;;;;
2022/04/28 08:12:53;;;;;;;2.3;2.1;;;;;;;24.57;32.4873;945.2076;;;;
2022/04/28 08:15:19;;;;;;;2.6;2.4;;;;;;;25.5;31.0791;945.1839;;;;
2022/04/28 08:17:45;;;;;;;2.6;2.1;;;;;;;25.59;31.08594;945.2495;;;;
2022/04/28 08:20:18;;;;;;;2.4;2.2;;;;;;;25.62;31.37109;945.25;;;;
2022/04/28 08:22:50;;;;;;;2.3;2.1;;;;;;;25.25;31.9707;945.2865;;;;
2022/04/28 08:25:20;;;;;;;2.6;2.4;;;;;;;25.27;32.24414;945.2858;;;;
2022/04/28 08:27:46;;;;;;;2.4;2.2;;;;;;;25.44;31.84277;945.3033;;;;
2022/04/28 08:30:20;;;;;;;3.1;2.4;;;;;;;24.69;32.2959;945.3504;;;;
2022/04/28 08:32:53;;;;;;;3.1;2.8;;;;;;;23.98;33.52832;945.3461;;;;
2022/04/28 08:35:24;;;;;;;2.9;2.3;;;;;;;23.6;34.28711;945.4344;;;;
2022/04/28 08:37:50;;;;;;;2.7;2.3;;;;;;;23.86;33.71875;945.4069;;;;
2022/04/28 08:40:16;;;;;;;2.8;2.2;;;;;;;23.85;33.88379;945.3811;;;;
2022/04/28 08:42:48;;;;;;;2.4;2.2;;;;;;;24.14;32.73828;945.3878;;;;
2022/04/28 08:45:15;;;;;;;3.1;2.4;;;;;;;24.24;32.58203;945.3939;;;;
2022/04/28 08:47:45;;;;;;;2.9;2.1;;;;;;;22.91;36.79492;945.4484;;;;
2022/04/28 08:50:12;;;;;;;2.3;1.9;;;;;;;24.12;33.97363;945.4292;;;;
2022/04/28 08:52:37;;;;;;;2.2;1.9;;;;;;;24.97;32.64648;945.4446;;;;
2022/04/28 08:55:02;;;;;;;2.3;2.1;;;;;;;24.38;34.04199;945.4058;;;;
2022/04/28 08:57:27;;;;;;;2.2;2;;;;;;;24.72;32.15723;945.3951;;;;
2022/04/28 08:59:55;;;;;;;1.9;1.8;;;;;;;24.32;33.14063;945.3705;;;;
2022/04/28 09:02:22;;;;;;;2.2;2;;;;;;;23.86;34.36621;945.4361;;;;
2022/04/28 09:04:48;;;;;;;1.8;1.7;;;;;;;24.14;33.35156;945.3513;;;;
2022/04/28 09:07:18;;;;;;;2.2;2;;;;;;;24.01;34.07129;945.4063;;;;
2022/04/28 09:09:43;;;;;;;2.2;2;;;;;;;24.75;32.55957;945.3731;;;;
2022/04/28 09:12:11;;;;;;;2.4;2.1;;;;;;;24.48;32.46973;945.3973;;;;
2022/04/28 09:14:36;;;;;;;2.8;2.1;;;;;;;24.23;33.53613;945.3558;;;;
2022/04/28 09:17:03;;;;;;;2.7;2.1;;;;;;;24.59;32.5127;945.3715;;;;
2022/04/28 09:19:28;;;;;;;2.4;2.2;;;;;;;24.5;33.74316;945.3836;;;;
2022/04/28 09:21:54;;;;;;;2.4;2.2;;;;;;;23.71;35.40137;945.3477;;;;
2022/04/28 09:24:22;;;;;;;2.9;2.3;;;;;;;22.72;36.9082;945.3895;;;;
2022/04/28 09:26:47;;;;;;;2.8;2.6;;;;;;;21.8;38.43652;945.3404;;;;
2022/04/28 09:29:12;;;;;;;4;2.2;;;;;;;21.95;38.63672;945.3915;;;;
2022/04/28 09:31:37;;;;;;;2.8;2.5;;;;;;;22.25;37.74902;945.3351;;;;
2022/04/28 09:34:05;;;;;;;2.9;2.2;;;;;;;22.4;37.39746;945.3201;;;;
2022/04/28 09:36:36;;;;;;;3.5;2.4;;;;;;;21.96;38.48633;945.3045;;;;
2022/04/28 09:39:01;;;;;;;3.7;2.3;;;;;;;22.02;39.55762;945.2911;;;;
2022/04/28 09:43:55;;;;;;;3.4;2.3;;;;;;;22.26;37.39844;945.3016;;;;
2022/04/28 09:46:25;;;;;;;2.4;2.2;;;;;;;22.01;37.68164;945.2661;;;;
2022/04/28 09:48:51;;;;;;;3.8;2.3;;;;;;;21.78;38.36426;945.2136;;;;
2022/04/28 09:51:22;;;;;;;2.5;2.3;;;;;;;21.47;38.6416;945.1741;;;;
2022/04/28 09:53:51;;;;;;;3.1;2.4;;;;;;;20.91;40.16113;945.1704;;;;
2022/04/28 09:56:16;;;;;;;2.5;2.3;;;;;;;20.47;41.05469;945.0865;;;;
2022/04/28 09:58:43;;;;;;;2.5;2.3;;;;;;;20.7;40.12891;945.1475;;;;
2022/04/28 10:01:08;;;;;;;2.8;2.4;;;;;;;20.63;38.8623;945.13;;;;
2022/04/28 10:03:40;;;;;;;2.4;1.8;;;;;;;21.17;38.16016;945.0959;;;;
2022/04/28 10:06:02;;;;;;;2.2;2;;;;;;;21.53;37.58203;945.129;;;;
2022/04/28 10:08:32;;;;;;;3.6;2.5;;;;;;;21.55;37.96973;945.0928;;;;
2022/04/28 10:11:02;;;;;;;2.5;2.3;;;;;;;21.35;38.51563;945.1567;;;;
2022/04/28 10:13:32;;;;;;;2.4;2.2;;;;;;;21.05;39.79883;945.1526;;;;
2022/04/28 10:15:57;;;;;;;2.7;1.9;;;;;;;21.07;38.2207;945.0899;;;;
2022/04/28 10:18:27;;;;;;;2.2;1.9;;;;;;;20.93;39.43652;945.1111;;;;
2022/04/28 10:20:55;;;;;;;2.3;2.1;;;;;;;21.29;37.86621;945.162;;;;
2022/04/28 10:23:17;;;;;;;2.6;2;;;;;;;21.2;37.70605;945.0151;;;;
2022/04/28 10:33:04;;;;;;;2.2;1.8;;;;;;;21.21;38.58398;945.049;;;;
2022/04/28 10:35:41;;;;;;;2.1;1.9;;;;;;;20.95;38.52734;945.1381;;;;
2022/04/28 10:38:07;;;;;;;3.3;1.8;;;;;;;20.71;39.9082;945.1642;;;;
2022/04/28 10:40:32;;;;;;;1.9;1.7;;;;;;;21.18;37.78613;945.0764;;;;
2022/04/28 10:43:06;;;;;;;2.3;2.1;;;;;;;20.74;37.74902;945.0269;;;;
2022/04/28 10:45:31;;;;;;;2.5;2;;;;;;;20.79;40.16211;945.0598;;;;
2022/04/28 10:47:59;;;;;;;1.7;1.6;;;;;;;20.92;38.92188;945.0496;;;;
2022/04/28 10:50:33;;;;;;;2.1;1.9;;;;;;;21.12;38.70508;945.1415;;;;
2022/04/28 10:53:24;;;;;;;1.8;1.7;;;;;;;21.31;39.27148;945.0539;;;;
2022/04/28 10:55:52;;;;;;;2.1;1.9;;;;;;;21.53;38.98828;944.9934;;;;
2022/04/28 10:58:17;;;;;;;2.4;1.9;;;;;;;21.31;37.76172;945.0661;;;;
2022/04/28 11:00:42;;;;;;;1.9;1.8;;;;;;;21.94;36.46875;945.0941;;;;
2022/04/28 11:03:11;;;;;;;1.9;1.8;;;;;;;22.1;36.18848;945.0529;;;;
2022/04/28 11:05:37;;;;;;;4.7;1.9;;;;;;;21.3;36.88379;945.0518;;;;
2022/04/28 11:08:02;;;;;;;2.6;2.1;;;;;;;21.29;37.77246;945.1386;;;;
2022/04/28 11:10:27;;;;;;;2.2;1.8;;;;;;;21.3;37.04785;945.0881;;;;
2022/04/28 11:12:52;;;;;;;2.5;1.7;;;;;;;21.54;35.90918;945.0753;;;;
2022/04/28 11:15:20;;;;;;;2.6;1.8;;;;;;;21.43;36.40332;945.1479;;;;
2022/04/28 11:17:45;;;;;;;2.9;1.8;;;;;;;21.9;35.98535;945.1203;;;;
2022/04/28 11:20:18;;;;;;;1.7;1.4;;;;;;;22.23;35.83496;945.144;;;;
2022/04/28 11:22:41;;;;;;;2.3;1.7;;;;;;;22.38;33.18457;945.0358;;;;
2022/04/28 11:25:14;;;;;;;2.4;1.6;;;;;;;21.73;36.63867;945.1044;;;;
2022/04/28 11:27:42;;;;;;;1.9;1.5;;;;;;;21.88;35.24414;945.0851;;;;
2022/04/28 11:30:17;;;;;;;1.6;1.5;;;;;;;22.36;33.55859;945.1002;;;;
2022/04/28 11:32:42;;;;;;;1.6;1.5;;;;;;;22.82;32.18457;945.1461;;;;
2022/04/28 11:35:08;;;;;;;1.8;1.5;;;;;;;22.35;32.56152;945.1785;;;;
2022/04/28 11:37:34;;;;;;;2.5;1.5;;;;;;;22.24;33.83105;945.1203;;;;
2022/04/28 11:39:59;;;;;;;1.6;1.5;;;;;;;21.77;34.04102;945.024;;;;
2022/04/28 11:42:26;;;;;;;2.5;1.5;;;;;;;22.15;33.69531;945.0948;;;;
2022/04/28 11:44:55;;;;;;;1.6;1.4;;;;;;;22.75;33.08301;945.1802;;;;
2022/04/28 11:47:26;;;;;;;1.8;1.4;;;;;;;22.56;32.66992;945.0938;;;;
2022/04/28 11:49:51;;;;;;;2.1;1.3;;;;;;;22.97;32.54785;945.1041;;;;
2022/04/28 11:52:18;;;;;;;2.3;1.3;;;;;;;23.56;29.02637;944.9727;;;;
2022/04/28 11:54:43;;;;;;;2;1.5;;;;;;;23.41;31.61621;945.1426;;;;
2022/04/28 11:57:09;;;;;;;1.8;1.5;;;;;;;22.87;31.89453;945.145;;;;
2022/04/28 11:59:35;;;;;;;1.6;1.5;;;;;;;22.03;33.60352;945.1207;;;;
2022/04/28 12:02:00;;;;;;;2.2;1.4;;;;;;;21.68;32.58203;945.0787;;;;
2022/04/28 12:04:25;;;;;;;1.8;1.7;;;;;;;21.2;35.30859;945.1244;;;;
2022/04/28 12:06:50;;;;;;;1.8;1.5;;;;;;;21.48;34.04297;945.0934;;;;
2022/04/28 12:14:27;;;;;;;1.7;1.6;;;;;;;21.69;31.96191;945.1719;;;;
2022/04/28 12:19:22;;;;;;;1.9;1.6;;;;;;;21.09;34.1875;945.1024;;;;
2022/04/28 12:21:32;;;;;;;2.9;1.5;;;;;;;20.74;35.20117;945.0609;;;;
2022/04/28 12:23:58;;;;;;;2.5;1.5;;;;;;;20.09;36.03613;945.0533;;;;
2022/04/28 12:26:24;;;;;;;1.7;1.5;;;;;;;19.77;37.14063;945.1008;;;;
2022/04/28 12:28:49;;;;;;;2.6;1.6;;;;;;;19.83;36.30664;945.1397;;;;
2022/04/28 12:31:15;;;;;;;2;1.5;;;;;;;19.72;36.63574;945.1418;;;;
2022/04/28 12:33:40;;;;;;;1.7;1.4;;;;;;;19.44;38.1748;945.0086;;;;
2022/04/28 12:36:13;;;;;;;1.6;1.5;;;;;;;19.42;37.51953;945.0817;;;;
2022/04/28 12:38:35;;;;;;;1.6;1.5;;;;;;;19.68;35.45508;945.0139;;;;
2022/04/28 12:41:00;;;;;;;2.6;1.6;;;;;;;19.23;38.16797;945.184;;;;
2022/04/28 12:43:26;;;;;;;2;1.5;;;;;;;19.5;38.45898;945.1888;;;;
2022/04/28 12:45:56;;;;;;;2.3;1.8;;;;;;;19.73;37.65137;945.0947;;;;
2022/04/28 12:48:16;;;;;;;1.7;1.5;;;;;;;19.75;37.03516;945.1672;;;;
2022/04/28 12:50:41;;;;;;;1.8;1.7;;;;;;;19.86;36.40137;945.1456;;;;
2022/04/28 12:53:09;;;;;;;2;1.8;;;;;;;19.75;36.91797;945.1099;;;;
2022/04/28 12:55:35;;;;;;;1.8;1.4;;;;;;;19.72;37.86035;945.1401;;;;
2022/04/28 12:57:59;;;;;;;1.6;1.5;;;;;;;19.71;36.4707;945.1283;;;;
2022/04/28 13:00:31;;;;;;;3.1;1.8;;;;;;;19.3;38.75586;945.1249;;;;
2022/04/28 13:03:07;;;;;;;1.5;1.4;;;;;;;19.59;38.51367;945.0803;;;;
2022/04/28 13:05:33;;;;;;;1.9;1.5;;;;;;;19.67;36.67871;945.0503;;;;
2022/04/28 13:08:06;;;;;;;3.1;1.7;;;;;;;19.74;35.74023;945.0647;;;;
2022/04/28 13:10:29;;;;;;;3.2;2;;;;;;;19.7;38.94238;945.0742;;;;
2022/04/28 13:12:58;;;;;;;2.5;1.7;;;;;;;19.46;36.1709;945.0367;;;;
2022/04/28 13:15:23;;;;;;;1.5;1.4;;;;;;;19.42;39.39551;944.9984;;;;
2022/04/28 13:17:50;;;;;;;3;1.6;;;;;;;19.51;39.27539;945.0142;;;;
2022/04/28 13:20:20;;;;;;;1.5;1.4;;;;;;;19.81;37.55273;944.9537;;;;
2022/04/28 13:22:51;;;;;;;2.4;1.8;;;;;;;19.5;37.21191;944.9109;;;;
2022/04/28 13:25:16;;;;;;;2.7;1.4;;;;;;;19.65;38.38965;944.9756;;;;
2022/04/28 13:27:47;;;;;;;2.1;1.6;;;;;;;19.54;39.95508;944.8831;;;;
2022/04/28 13:30:21;;;;;;;1.8;1.6;;;;;;;19.47;37.18555;944.8912;;;;
2022/04/28 13:32:50;;;;;;;1.6;1.5;;;;;;;19.19;37.25488;944.9526;;;;
2022/04/28 13:35:19;;;;;;;2.7;1.6;;;;;;;19.13;38.74121;944.8951;;;;
2022/04/28 13:37:49;;;;;;;2.2;1.5;;;;;;;19.41;36.9834;944.806;;;;
2022/04/28 13:40:19;;;;;;;1.7;1.6;;;;;;;19.58;36.13379;944.8115;;;;
2022/04/28 13:42:44;;;;;;;2.1;1.6;;;;;;;19.47;36.06738;944.7933;;;;
2022/04/28 13:45:16;;;;;;;2.3;1.6;;;;;;;19.11;39.54297;944.8195;;;;
2022/04/28 13:47:43;;;;;;;1.7;1.6;;;;;;;19.3;36.14648;944.7695;;;;
2022/04/28 13:50:09;;;;;;;1.6;1.5;;;;;;;19.35;36.57031;944.6962;;;;
2022/04/28 13:52:40;;;;;;;1.9;1.3;;;;;;;19.25;37.20313;944.7283;;;;
2022/04/28 13:55:16;;;;;;;1.8;1.5;;;;;;;19.32;38.79297;944.7072;;;;
2022/04/28 13:57:51;;;;;;;1.8;1.7;;;;;;;19.23;37.58496;944.6631;;;;
2022/04/28 14:00:18;;;;;;;2.4;1.7;;;;;;;19.14;36.27344;944.652;;;;
2022/04/28 14:02:42;;;;;;;1.7;1.3;;;;;;;19.28;37.14746;944.6189;;;;
2022/04/28 14:05:08;;;;;;;1.7;1.6;;;;;;;19.22;37.02539;944.6133;;;;
2022/04/28 14:07:36;;;;;;;1.7;1.5;;;;;;;19.15;36.97266;944.6308;;;;
2022/04/28 14:10:10;;;;;;;2.1;1.6;;;;;;;19.05;38.01172;944.5709;;;;
2022/04/28 14:12:45;;;;;;;2.2;1.8;;;;;;;18.81;38.80566;944.5588;;;;
2022/04/28 14:15:18;;;;;;;1.5;1.4;;;;;;;18.85;37.55273;944.4819;;;;
2022/04/28 14:17:46;;;;;;;1.7;1.5;;;;;;;18.83;40.06445;944.4345;;;;
2022/04/28 14:20:13;;;;;;;2.8;1.9;;;;;;;18.81;39.3877;944.483;;;;
2022/04/28 14:22:43;;;;;;;3.1;1.8;;;;;;;18.72;39.53027;944.4445;;;;
2022/04/28 14:25:14;;;;;;;1.6;1.5;;;;;;;18.59;38.7168;944.3558;;;;
2022/04/28 14:27:48;;;;;;;2.3;1.5;;;;;;;18.62;37.60352;944.4662;;;;
2022/04/28 14:30:19;;;;;;;1.9;1.5;;;;;;;18.67;39.20117;944.4564;;;;
2022/04/28 14:32:45;;;;;;;1.6;1.5;;;;;;;18.74;37.05469;944.5071;;;;
2022/04/28 14:35:13;;;;;;;1.7;1.6;;;;;;;18.68;39.75977;944.4772;;;;
2022/04/28 14:37:47;;;;;;;1.6;1.5;;;;;;;18.47;38.7998;944.387;;;;
2022/04/28 14:40:21;;;;;;;1.7;1.6;;;;;;;18.38;39.14063;944.4467;;;;
2022/04/28 14:42:51;;;;;;;1.9;1.5;;;;;;;18.42;39.81738;944.5115;;;;
2022/04/28 14:45:19;;;;;;;1.8;1.7;;;;;;;18.54;37.61914;944.4137;;;;
2022/04/28 14:47:46;;;;;;;1.7;1.4;;;;;;;18.43;37.41211;944.4835;;;;
2022/04/28 14:52:46;;;;;;;1.5;1.4;;;;;;;18.34;40.22949;944.4051;;;;
2022/04/28 14:55:17;;;;;;;2.2;1.4;;;;;;;18.33;40.03027;944.4771;;;;
2022/04/28 14:57:48;;;;;;;1.5;1.4;;;;;;;18.26;39.00195;944.4052;;;;
2022/04/28 15:00:18;;;;;;;2.2;1.5;;;;;;;18.36;39.63867;944.5025;;;;
2022/04/28 15:02:51;;;;;;;1.6;1.5;;;;;;;18.34;38.39355;944.4156;;;;
2022/04/28 15:05:20;;;;;;;1.6;1.5;;;;;;;18.2;39.80957;944.4385;;;;
2022/04/28 15:07:45;;;;;;;2.6;1.9;;;;;;;18.17;39.15625;944.4219;;;;
2022/04/28 15:10:17;;;;;;;2.1;1.7;;;;;;;18.22;38.39453;944.4265;;;;
2022/04/28 15:12:46;;;;;;;3;1.7;;;;;;;18.2;38.51953;944.399;;;;
2022/04/28 15:15:12;;;;;;;1.8;1.7;;;;;;;18.05;40.35352;944.4827;;;;
2022/04/28 15:17:44;;;;;;;1.7;1.6;;;;;;;18.11;38.73242;944.4378;;;;
2022/04/28 15:20:08;;;;;;;2;1.6;;;;;;;18.1;38.47656;944.3516;;;;
2022/04/28 15:22:38;;;;;;;2;1.7;;;;;;;18.05;40.52734;944.4601;;;;
2022/04/28 15:25:02;;;;;;;2.1;1.8;;;;;;;18.09;38.39453;944.4686;;;;
2022/04/28 15:27:33;;;;;;;2.5;1.7;;;;;;;18.03;40.5957;944.4587;;;;
2022/04/28 15:30:02;;;;;;;2.5;1.6;;;;;;;17.88;39.32715;944.4397;;;;
2022/04/28 15:32:28;;;;;;;2;1.6;;;;;;;17.91;39.17969;944.4409;;;;